createdAt,value
2023-03-17T00:01:21.744Z,1.70
2023-03-17T00:03:50.410Z,1.70
2023-03-17T00:06:29.566Z,1.40
2023-03-17T00:08:58.834Z,1.57
2023-03-17T00:11:29.327Z,1.80
2023-03-17T00:13:57.603Z,1.70
2023-03-17T00:16:28.135Z,1.80
2023-03-17T00:18:56.895Z,1.77
2023-03-17T00:21:28.711Z,2.00
2023-03-17T00:23:58.672Z,1.60
2023-03-17T00:26:26.989Z,1.70
2023-03-17T00:28:55.365Z,1.63
2023-03-17T00:31:26.140Z,1.63
2023-03-17T00:33:55.731Z,1.70
2023-03-17T00:36:25.194Z,1.87
2023-03-17T00:38:55.827Z,1.90
2023-03-17T00:41:25.154Z,2.00
2023-03-17T00:43:53.035Z,2.00
2023-03-17T00:46:25.453Z,1.90
2023-03-17T00:48:54.392Z,1.90
2023-03-17T00:51:23.295Z,1.40
2023-03-17T00:53:51.841Z,2.37
2023-03-17T00:56:21.886Z,1.80
2023-03-17T00:58:51.575Z,2.10
2023-03-17T01:01:19.944Z,2.27
2023-03-17T01:03:48.105Z,2.47
2023-03-17T01:06:17.669Z,2.33
2023-03-17T01:08:45.910Z,2.60
2023-03-17T01:11:17.866Z,2.33
2023-03-17T01:13:46.617Z,2.40
2023-03-17T01:16:17.004Z,2.03
2023-03-17T01:18:45.707Z,2.77
2023-03-17T01:21:13.974Z,2.13
2023-03-17T01:23:41.894Z,2.20
2023-03-17T01:26:09.918Z,2.47
2023-03-17T01:28:37.771Z,2.33
2023-03-17T01:31:05.873Z,2.60
2023-03-17T01:33:35.236Z,2.33
2023-03-17T01:36:03.287Z,2.07
2023-03-17T01:38:31.290Z,2.30
2023-03-17T01:40:59.355Z,2.57
2023-03-17T01:43:29.422Z,2.50
2023-03-17T01:46:25.201Z,2.60
2023-03-17T01:49:05.630Z,2.57
2023-03-17T01:51:37.783Z,2.60
2023-03-17T01:54:09.503Z,3.07
2023-03-17T01:56:42.060Z,2.70
2023-03-17T01:59:13.657Z,3.20
2023-03-17T02:01:47.298Z,2.97
2023-03-17T02:04:19.459Z,2.80
2023-03-17T02:06:57.941Z,2.40
2023-03-17T02:09:27.691Z,2.57
2023-03-17T02:11:56.382Z,2.97
2023-03-17T02:14:24.394Z,3.23
2023-03-17T02:16:52.703Z,3.33
2023-03-17T02:19:22.101Z,2.87
2023-03-17T02:21:53.660Z,3.00
2023-03-17T02:24:27.562Z,3.27
2023-03-17T02:26:58.635Z,2.57
2023-03-17T02:29:27.581Z,3.27
2023-03-17T02:31:55.731Z,3.10
2023-03-17T02:34:23.570Z,2.90
2023-03-17T02:36:52.809Z,2.77
2023-03-17T02:39:20.917Z,2.60
2023-03-17T02:41:48.709Z,2.60
2023-03-17T02:44:16.549Z,2.87
2023-03-17T02:46:44.501Z,2.70
2023-03-17T02:49:12.886Z,2.93
2023-03-17T02:51:40.835Z,3.30
2023-03-17T02:54:10.321Z,2.93
2023-03-17T02:56:38.363Z,3.17
2023-03-17T02:59:07.205Z,2.73
2023-03-17T03:01:35.293Z,2.60
2023-03-17T03:04:03.980Z,3.00
2023-03-17T03:06:31.908Z,3.27
2023-03-17T03:09:00.014Z,2.70
2023-03-17T03:11:29.426Z,3.23
2023-03-17T03:13:57.322Z,2.57
2023-03-17T03:16:25.625Z,2.60
2023-03-17T03:18:53.562Z,3.00
2023-03-17T03:21:22.081Z,3.67
2023-03-17T03:23:50.390Z,3.10
2023-03-17T03:26:19.280Z,2.70
2023-03-17T03:28:48.529Z,2.80
2023-03-17T03:31:16.714Z,2.53
2023-03-17T03:33:45.569Z,2.67
2023-03-17T03:36:13.952Z,2.77
2023-03-17T03:38:42.555Z,2.57
2023-03-17T03:41:11.212Z,3.07
2023-03-17T03:43:39.133Z,3.00
2023-03-17T03:46:08.563Z,2.93
2023-03-17T03:48:36.442Z,2.83
2023-03-17T03:51:04.778Z,2.90
2023-03-17T03:53:32.887Z,3.00
2023-03-17T03:56:00.883Z,2.73
2023-03-17T03:58:28.685Z,3.00
2023-03-17T04:00:56.969Z,2.70
2023-03-17T04:03:27.036Z,2.80
2023-03-17T04:05:54.931Z,2.70
2023-03-17T04:08:22.781Z,3.20
2023-03-17T04:10:50.614Z,2.77
2023-03-17T04:13:18.650Z,2.60
2023-03-17T04:15:46.474Z,3.00
2023-03-17T04:18:14.325Z,2.43
2023-03-17T04:20:43.582Z,2.53
2023-03-17T04:23:11.931Z,3.30
2023-03-17T04:25:39.945Z,3.07
2023-03-17T04:28:09.046Z,3.23
2023-03-17T04:30:37.123Z,3.00
2023-03-17T04:33:05.082Z,3.23
2023-03-17T04:35:33.063Z,2.50
2023-03-17T04:38:02.771Z,2.80
2023-03-17T04:40:30.865Z,2.40
2023-03-17T04:42:58.798Z,3.30
2023-03-17T04:45:26.596Z,3.13
2023-03-17T04:47:54.454Z,2.73
2023-03-17T04:50:22.279Z,2.67
2023-03-17T04:52:50.124Z,3.13
2023-03-17T04:55:19.490Z,3.27
2023-03-17T04:57:47.555Z,3.80
2023-03-17T05:00:16.567Z,2.90
2023-03-17T05:02:44.412Z,3.10
2023-03-17T05:05:12.976Z,3.60
2023-03-17T05:07:41.855Z,2.93
2023-03-17T05:10:11.225Z,3.20
2023-03-17T05:12:40.380Z,4.10
2023-03-17T05:15:10.050Z,3.67
2023-03-17T05:17:38.157Z,3.50
2023-03-17T05:20:08.351Z,3.90
2023-03-17T05:22:36.225Z,3.40
2023-03-17T05:25:05.305Z,3.33
2023-03-17T05:27:33.325Z,3.27
2023-03-17T05:30:03.360Z,3.60
2023-03-17T05:32:32.048Z,3.17
2023-03-17T05:34:59.926Z,3.30
2023-03-17T05:37:28.123Z,3.77
2023-03-17T05:39:55.905Z,3.07
2023-03-17T05:42:23.629Z,3.17
2023-03-17T05:44:51.445Z,2.87
2023-03-17T05:47:20.861Z,3.33
2023-03-17T05:49:48.779Z,3.07
2023-03-17T05:52:17.244Z,2.63
2023-03-17T05:54:48.290Z,3.23
2023-03-17T05:57:16.456Z,2.67
2023-03-17T05:59:44.462Z,3.37
2023-03-17T06:02:13.378Z,3.67
2023-03-17T06:04:43.136Z,3.00
2023-03-17T06:07:12.349Z,3.40
2023-03-17T06:09:40.155Z,3.00
2023-03-17T06:12:09.363Z,3.27
2023-03-17T06:14:37.397Z,3.93
2023-03-17T06:17:05.462Z,2.87
2023-03-17T06:19:33.311Z,3.00
2023-03-17T06:22:02.521Z,3.00
2023-03-17T06:24:30.384Z,2.70
2023-03-17T06:26:59.540Z,2.93
2023-03-17T06:29:28.606Z,4.03
2023-03-17T06:31:58.160Z,14.73
2023-03-17T06:34:33.306Z,10.20
2023-03-17T06:37:02.611Z,9.77
2023-03-17T06:39:30.387Z,3.97
2023-03-17T06:41:58.289Z,3.83
2023-03-17T06:44:25.982Z,4.43
2023-03-17T06:46:54.187Z,3.50
2023-03-17T06:49:22.270Z,5.03
2023-03-17T06:51:50.219Z,5.80
2023-03-17T06:54:20.651Z,3.87
2023-03-17T06:56:48.553Z,3.03
2023-03-17T06:59:16.302Z,2.90
2023-03-17T07:01:44.250Z,3.07
2023-03-17T07:04:12.223Z,2.40
2023-03-17T07:06:40.350Z,2.77
2023-03-17T07:09:10.087Z,2.77
2023-03-17T07:11:39.363Z,2.90
2023-03-17T07:14:07.765Z,2.67
2023-03-17T07:16:35.619Z,3.07
2023-03-17T07:19:03.413Z,2.97
2023-03-17T07:21:31.534Z,3.17
2023-03-17T07:23:59.291Z,3.10
2023-03-17T07:26:27.300Z,2.80
2023-03-17T07:28:56.480Z,2.93
2023-03-17T07:31:25.353Z,3.13
2023-03-17T07:33:55.341Z,2.30
2023-03-17T07:36:25.025Z,2.60
2023-03-17T07:38:52.741Z,3.10
2023-03-17T07:41:20.469Z,2.67
2023-03-17T07:43:48.305Z,2.57
2023-03-17T07:46:17.512Z,2.43
2023-03-17T07:48:46.153Z,2.80
2023-03-17T07:51:16.109Z,2.20
2023-03-17T07:53:45.128Z,2.40
2023-03-17T07:56:13.526Z,2.33
2023-03-17T07:58:41.699Z,2.23
2023-03-17T08:01:09.881Z,2.87
2023-03-17T08:03:41.338Z,3.20
2023-03-17T08:06:09.724Z,2.57
2023-03-17T08:08:38.283Z,2.77
2023-03-17T08:11:08.306Z,2.53
2023-03-17T08:13:36.256Z,2.60
2023-03-17T08:16:04.204Z,2.80
2023-03-17T08:18:32.030Z,2.00
2023-03-17T08:21:02.059Z,2.10
2023-03-17T08:23:29.821Z,2.17
2023-03-17T08:25:59.456Z,2.23
2023-03-17T08:28:27.937Z,2.27
2023-03-17T08:31:11.836Z,2.37
2023-03-17T08:33:40.634Z,2.20
2023-03-17T08:36:11.430Z,1.90
2023-03-17T08:38:40.621Z,2.10
2023-03-17T08:41:10.812Z,2.07
2023-03-17T08:43:38.958Z,2.23
2023-03-17T08:46:10.345Z,2.13
2023-03-17T08:48:38.540Z,1.67
2023-03-17T08:51:09.058Z,2.10
2023-03-17T08:53:37.332Z,1.80
2023-03-17T08:56:07.117Z,2.20
2023-03-17T08:58:36.113Z,2.20
2023-03-17T09:01:05.372Z,2.13
2023-03-17T09:03:34.184Z,1.63
2023-03-17T09:06:04.569Z,2.17
2023-03-17T09:08:34.216Z,2.23
2023-03-17T09:11:03.447Z,1.93
2023-03-17T09:13:31.267Z,2.00
2023-03-17T09:15:59.832Z,2.10
2023-03-17T09:18:27.667Z,1.60
2023-03-17T09:20:55.518Z,1.77
2023-03-17T09:23:23.832Z,1.80
2023-03-17T09:25:53.446Z,1.77
2023-03-17T09:28:21.207Z,2.07
2023-03-17T09:30:49.483Z,2.00
2023-03-17T09:33:18.030Z,1.83
2023-03-17T09:35:45.845Z,1.83
2023-03-17T09:38:15.305Z,2.10
2023-03-17T09:40:49.288Z,1.73
2023-03-17T09:43:28.233Z,2.17
2023-03-17T09:45:57.107Z,1.67
2023-03-17T09:48:46.347Z,1.87
2023-03-17T09:51:18.156Z,1.80
2023-03-17T09:53:50.999Z,1.43
2023-03-17T09:56:20.765Z,1.67
2023-03-17T09:58:55.117Z,1.60
2023-03-17T10:01:24.054Z,1.30
2023-03-17T10:03:53.386Z,1.70
2023-03-17T10:06:41.079Z,1.70
2023-03-17T10:09:19.653Z,1.70
2023-03-17T10:11:49.495Z,1.50
2023-03-17T10:14:49.012Z,1.60
2023-03-17T10:17:21.297Z,1.57
2023-03-17T10:19:58.169Z,1.60
2023-03-17T10:22:31.591Z,1.43
2023-03-17T10:25:04.939Z,1.80
2023-03-17T10:27:38.518Z,1.57
2023-03-17T10:30:16.089Z,1.67
2023-03-17T10:32:45.510Z,1.40
2023-03-17T10:35:15.078Z,1.53
2023-03-17T10:37:44.145Z,1.30
2023-03-17T10:40:22.385Z,1.53
2023-03-17T10:42:54.689Z,1.70
2023-03-17T10:45:28.934Z,1.60
2023-03-17T10:47:58.335Z,1.53
2023-03-17T10:50:30.424Z,1.60
2023-03-17T10:53:01.494Z,1.50
2023-03-17T10:55:32.896Z,1.30
2023-03-17T10:58:05.368Z,1.40
2023-03-17T11:00:36.785Z,1.43
2023-03-17T11:03:12.752Z,1.77
2023-03-17T11:05:41.112Z,1.60
2023-03-17T11:08:12.779Z,1.40
2023-03-17T11:10:41.808Z,1.47
2023-03-17T11:13:10.375Z,1.63
2023-03-17T11:15:44.212Z,1.63
2023-03-17T11:18:18.067Z,1.90
2023-03-17T11:20:51.449Z,1.70
2023-03-17T11:23:27.480Z,1.50
2023-03-17T11:26:03.113Z,1.70
2023-03-17T11:28:36.282Z,2.00
2023-03-17T11:31:13.346Z,2.00
2023-03-17T11:33:48.195Z,1.70
2023-03-17T11:36:36.528Z,1.87
2023-03-17T11:39:11.116Z,2.00
2023-03-17T11:41:46.524Z,2.17
2023-03-17T11:44:38.467Z,1.70
2023-03-17T11:47:14.142Z,1.70
2023-03-17T11:49:43.507Z,1.93
2023-03-17T11:52:22.000Z,1.83
2023-03-17T11:54:58.925Z,1.40
2023-03-17T11:57:32.249Z,1.50
2023-03-17T12:00:04.612Z,1.90
2023-03-17T12:02:42.633Z,1.80
2023-03-17T12:05:15.384Z,1.60
2023-03-17T12:07:46.726Z,1.90
2023-03-17T12:10:22.562Z,1.70
2023-03-17T12:12:56.440Z,1.70
2023-03-17T12:15:33.533Z,1.60
2023-03-17T12:18:08.388Z,1.70
2023-03-17T12:20:49.386Z,1.93
2023-03-17T12:23:29.247Z,1.70
2023-03-17T12:26:02.648Z,1.77
2023-03-17T12:28:37.631Z,1.80
2023-03-17T12:31:08.037Z,1.53
2023-03-17T12:33:43.768Z,1.83
2023-03-17T12:36:16.208Z,1.50
2023-03-17T12:38:48.369Z,1.47
2023-03-17T12:41:37.649Z,1.60
2023-03-17T12:44:12.356Z,1.73
2023-03-17T12:47:14.258Z,1.63
2023-03-17T12:50:05.786Z,1.87
2023-03-17T12:52:48.137Z,1.70
2023-03-17T12:55:18.635Z,1.73
2023-03-17T12:57:48.468Z,1.77
2023-03-17T13:00:25.251Z,1.50
2023-03-17T13:03:10.653Z,1.40
2023-03-17T13:05:40.359Z,1.90
2023-03-17T13:08:11.340Z,1.83
2023-03-17T13:10:43.350Z,1.40
2023-03-17T13:13:36.765Z,1.40
2023-03-17T13:16:07.532Z,1.50
2023-03-17T13:19:07.447Z,1.50
2023-03-17T13:21:38.725Z,1.20
2023-03-17T13:24:36.051Z,1.57
2023-03-17T13:27:05.490Z,1.27
2023-03-17T13:29:45.513Z,1.40
2023-03-17T13:32:38.367Z,1.73
2023-03-17T13:35:28.597Z,1.77
2023-03-17T13:38:40.720Z,2.17
2023-03-17T13:41:19.960Z,1.40
2023-03-17T13:44:03.461Z,1.93
2023-03-17T13:46:41.373Z,1.70
2023-03-17T13:49:24.270Z,1.40
2023-03-17T13:51:59.955Z,1.30
2023-03-17T13:54:35.050Z,1.80
2023-03-17T13:57:25.557Z,1.30
2023-03-17T14:00:03.909Z,1.57
2023-03-17T14:02:35.044Z,1.40
2023-03-17T14:05:06.454Z,1.50
2023-03-17T14:07:44.795Z,1.50
2023-03-17T14:10:19.942Z,1.40
2023-03-17T14:12:53.614Z,1.40
2023-03-17T14:15:26.260Z,1.30
2023-03-17T14:17:58.626Z,1.30
2023-03-17T14:20:27.286Z,1.30
2023-03-17T14:22:57.617Z,1.40
2023-03-17T14:25:31.698Z,1.10
2023-03-17T14:28:00.924Z,1.70
2023-03-17T14:30:31.275Z,1.27
2023-03-17T14:33:03.440Z,1.40
2023-03-17T14:35:34.128Z,1.53
2023-03-17T14:38:02.953Z,1.50
2023-03-17T14:40:36.893Z,1.20
2023-03-17T14:43:05.325Z,1.27
2023-03-17T14:45:48.562Z,1.40
2023-03-17T14:48:22.345Z,1.50
2023-03-17T14:50:52.919Z,1.30
2023-03-17T14:53:22.377Z,1.17
2023-03-17T14:55:53.669Z,1.80
2023-03-17T14:58:25.954Z,1.30
2023-03-17T15:00:58.131Z,1.30
2023-03-17T15:03:31.624Z,1.00
2023-03-17T15:06:22.541Z,1.30
2023-03-17T15:08:51.072Z,1.07
2023-03-17T15:11:28.427Z,1.27
2023-03-17T15:14:04.806Z,1.20
2023-03-17T15:16:36.091Z,1.20
2023-03-17T15:19:07.835Z,1.40
2023-03-17T15:21:41.043Z,1.53
2023-03-17T15:24:24.880Z,1.17
2023-03-17T15:27:02.206Z,1.30
2023-03-17T15:29:30.531Z,1.20
2023-03-17T15:32:04.702Z,1.50
2023-03-17T15:34:32.597Z,1.40
2023-03-17T15:37:00.420Z,0.97
2023-03-17T15:39:28.413Z,1.17
2023-03-17T15:41:56.281Z,1.30
2023-03-17T15:44:26.102Z,1.30
2023-03-17T15:46:54.334Z,1.33
2023-03-17T15:49:24.726Z,1.20
2023-03-17T15:51:53.881Z,1.17
2023-03-17T15:54:22.349Z,1.47
2023-03-17T15:56:50.351Z,1.50
2023-03-17T15:59:18.414Z,1.47
2023-03-17T16:01:48.027Z,1.40
2023-03-17T16:04:17.981Z,1.37
2023-03-17T16:06:48.008Z,1.40
2023-03-17T16:09:18.055Z,1.40
2023-03-17T16:11:45.912Z,1.30
2023-03-17T16:14:13.728Z,1.20
2023-03-17T16:16:46.218Z,1.00
2023-03-17T16:19:20.361Z,1.40
2023-03-17T16:21:49.071Z,1.50
2023-03-17T16:24:21.710Z,1.67
2023-03-17T16:26:50.431Z,1.53
2023-03-17T16:29:19.537Z,1.50
2023-03-17T16:31:49.924Z,1.60
2023-03-17T16:34:21.343Z,1.20
2023-03-17T16:36:50.388Z,1.40
2023-03-17T16:39:19.751Z,1.70
2023-03-17T16:41:48.736Z,3.03
2023-03-17T16:44:19.320Z,2.53
2023-03-17T16:46:47.202Z,1.63
2023-03-17T16:49:17.756Z,1.90
2023-03-17T16:51:49.396Z,1.23
2023-03-17T16:54:18.294Z,1.23
2023-03-17T16:56:46.271Z,1.70
2023-03-17T16:59:19.757Z,1.27
2023-03-17T17:01:47.872Z,1.43
2023-03-17T17:04:15.798Z,1.90
2023-03-17T17:06:43.642Z,2.10
2023-03-17T17:09:12.895Z,4.43
2023-03-17T17:11:40.908Z,3.57
2023-03-17T17:14:09.071Z,3.27
2023-03-17T17:16:39.798Z,2.77
2023-03-17T17:19:15.495Z,2.57
2023-03-17T17:21:43.358Z,2.10
2023-03-17T17:24:14.043Z,1.83
2023-03-17T17:26:41.834Z,1.80
2023-03-17T17:29:09.896Z,1.80
2023-03-17T17:31:37.843Z,1.60
2023-03-17T17:34:05.700Z,1.73
2023-03-17T17:36:33.586Z,1.47
2023-03-17T17:39:01.598Z,1.20
2023-03-17T17:41:32.607Z,1.47
2023-03-17T17:44:00.596Z,2.00
2023-03-17T17:46:28.592Z,2.00
2023-03-17T17:48:56.534Z,1.57
2023-03-17T17:51:24.314Z,2.03
2023-03-17T17:54:01.069Z,1.90
2023-03-17T17:56:30.818Z,2.70
2023-03-17T17:58:59.361Z,2.90
2023-03-17T18:01:27.225Z,2.80
2023-03-17T18:03:55.253Z,3.00
2023-03-17T18:06:23.586Z,2.33
2023-03-17T18:08:52.032Z,2.10
2023-03-17T18:11:20.183Z,2.00
2023-03-17T18:13:49.452Z,2.17
2023-03-17T18:16:18.608Z,2.10
2023-03-17T18:18:47.198Z,1.90
2023-03-17T18:21:15.424Z,2.20
2023-03-17T18:23:47.034Z,1.33
2023-03-17T18:26:16.386Z,1.63
2023-03-17T18:28:45.228Z,2.57
2023-03-17T18:31:18.695Z,2.63
2023-03-17T18:33:48.237Z,1.83
2023-03-17T18:36:16.463Z,1.83
2023-03-17T18:38:44.326Z,2.10
2023-03-17T18:41:12.646Z,1.90
2023-03-17T18:43:43.648Z,2.00
2023-03-17T18:46:12.698Z,2.00
2023-03-17T18:48:41.957Z,1.90
2023-03-17T18:51:09.837Z,2.50
2023-03-17T18:53:39.176Z,2.33
2023-03-17T18:56:08.046Z,2.60
2023-03-17T18:58:36.357Z,2.53
2023-03-17T19:01:05.202Z,2.77
2023-03-17T19:03:33.341Z,2.00
2023-03-17T19:06:11.118Z,1.80
2023-03-17T19:08:39.457Z,1.83
2023-03-17T19:11:08.015Z,1.97
2023-03-17T19:13:36.351Z,1.77
2023-03-17T19:16:04.539Z,2.10
2023-03-17T19:18:33.003Z,2.40
2023-03-17T19:21:01.228Z,3.07
2023-03-17T19:23:32.288Z,3.27
2023-03-17T19:26:01.125Z,2.90
2023-03-17T19:28:29.626Z,1.97
2023-03-17T19:30:57.642Z,1.80
2023-03-17T19:33:25.709Z,1.90
2023-03-17T19:35:56.055Z,2.23
2023-03-17T19:38:24.323Z,2.07
2023-03-17T19:40:54.469Z,1.90
2023-03-17T19:43:38.978Z,1.73
2023-03-17T19:46:08.879Z,1.53
2023-03-17T19:48:38.423Z,1.70
2023-03-17T19:51:08.154Z,1.80
2023-03-17T19:53:37.388Z,1.93
2023-03-17T19:56:08.230Z,2.20
2023-03-17T19:58:36.226Z,2.40
2023-03-17T20:01:04.398Z,2.30
2023-03-17T20:03:33.587Z,3.97
2023-03-17T20:06:06.000Z,2.93
2023-03-17T20:08:35.790Z,3.90
2023-03-17T20:11:05.659Z,2.53
2023-03-17T20:13:35.927Z,2.53
2023-03-17T20:16:04.890Z,2.50
2023-03-17T20:18:32.888Z,2.70
2023-03-17T20:21:05.338Z,2.50
2023-03-17T20:23:33.381Z,2.23
2023-03-17T20:26:01.371Z,2.73
2023-03-17T20:28:30.114Z,2.63
2023-03-17T20:31:02.998Z,2.77
2023-03-17T20:33:31.563Z,2.17
2023-03-17T20:35:59.444Z,2.13
2023-03-17T20:38:27.989Z,2.30
2023-03-17T20:41:07.361Z,2.27
2023-03-17T20:43:36.226Z,1.97
2023-03-17T20:46:08.509Z,1.47
2023-03-17T20:48:37.423Z,1.60
2023-03-17T20:51:06.944Z,1.47
2023-03-17T20:53:37.712Z,1.30
2023-03-17T20:56:06.885Z,1.60
2023-03-17T20:58:35.408Z,1.60
2023-03-17T21:01:03.316Z,1.60
2023-03-17T21:03:33.181Z,1.77
2023-03-17T21:06:01.499Z,2.00
2023-03-17T21:08:29.764Z,1.70
2023-03-17T21:10:57.774Z,2.23
2023-03-17T21:13:26.489Z,2.37
2023-03-17T21:15:55.482Z,2.20
2023-03-17T21:18:23.610Z,1.90
2023-03-17T21:20:53.009Z,1.63
2023-03-17T21:23:24.125Z,1.87
2023-03-17T21:25:56.220Z,1.80
2023-03-17T21:28:24.344Z,2.10
2023-03-17T21:30:52.743Z,1.60
2023-03-17T21:33:21.414Z,1.63
2023-03-17T21:35:49.383Z,1.37
2023-03-17T21:38:18.568Z,1.47
2023-03-17T21:40:46.559Z,1.60
2023-03-17T21:43:15.361Z,1.70
2023-03-17T21:45:44.418Z,1.50
2023-03-17T21:48:12.368Z,1.40
2023-03-17T21:50:40.228Z,1.77
2023-03-17T21:53:09.320Z,1.83
2023-03-17T21:55:38.834Z,1.60
2023-03-17T21:58:06.780Z,1.80
2023-03-17T22:00:44.729Z,1.77
2023-03-17T22:03:13.875Z,1.33
2023-03-17T22:05:42.286Z,1.47
2023-03-17T22:08:10.891Z,1.80
2023-03-17T22:10:41.737Z,1.93
2023-03-17T22:13:10.183Z,1.60
2023-03-17T22:15:38.293Z,1.70
2023-03-17T22:18:06.342Z,1.80
2023-03-17T22:20:34.419Z,1.73
2023-03-17T22:23:02.272Z,1.70
2023-03-17T22:25:30.244Z,1.17
2023-03-17T22:27:59.537Z,1.53
2023-03-17T22:30:27.410Z,1.60
2023-03-17T22:32:55.747Z,1.50
2023-03-17T22:35:25.096Z,1.80
2023-03-17T22:37:53.572Z,1.93
2023-03-17T22:40:21.491Z,1.73
2023-03-17T22:42:49.490Z,1.90
2023-03-17T22:45:18.965Z,1.70
2023-03-17T22:47:46.885Z,1.80
2023-03-17T22:50:15.038Z,1.60
2023-03-17T22:52:43.401Z,1.70
2023-03-17T22:55:12.060Z,1.70
2023-03-17T22:57:40.088Z,1.37
2023-03-17T23:00:14.465Z,1.70
2023-03-17T23:02:44.119Z,1.60
2023-03-17T23:05:13.377Z,1.90
2023-03-17T23:07:50.263Z,1.63
2023-03-17T23:10:22.917Z,1.50
2023-03-17T23:12:51.498Z,1.57
2023-03-17T23:15:20.473Z,1.70
2023-03-17T23:17:49.780Z,2.20
2023-03-17T23:20:19.061Z,2.53
2023-03-17T23:22:47.174Z,2.50
2023-03-17T23:25:15.483Z,1.87
2023-03-17T23:27:43.512Z,1.80
2023-03-17T23:30:13.156Z,1.83
2023-03-17T23:32:42.924Z,1.60
2023-03-17T23:35:14.017Z,1.57
2023-03-17T23:37:42.254Z,1.70
2023-03-17T23:40:13.643Z,1.73
2023-03-17T23:42:41.579Z,1.80
2023-03-17T23:45:10.771Z,1.57
2023-03-17T23:47:39.373Z,1.83
2023-03-17T23:50:08.647Z,1.83
2023-03-17T23:52:38.289Z,1.80
2023-03-17T23:55:08.041Z,1.60
2023-03-17T23:57:36.703Z,1.93
